createdAt,value
2023-07-19T00:02:13.105Z,6.40
2023-07-19T00:04:40.504Z,6.20
2023-07-19T00:07:07.629Z,5.90
2023-07-19T00:09:34.767Z,6.10
2023-07-19T00:12:01.897Z,5.80
2023-07-19T00:14:28.934Z,6.40
2023-07-19T00:16:56.376Z,5.70
2023-07-19T00:19:25.618Z,6.20
2023-07-19T00:21:52.731Z,6.20
2023-07-19T00:24:20.899Z,5.90
2023-07-19T00:26:50.177Z,6.20
2023-07-19T00:29:17.325Z,6.50
2023-07-19T00:31:45.205Z,5.60
2023-07-19T00:34:13.070Z,6.40
2023-07-19T00:36:40.312Z,6.10
2023-07-19T00:39:07.391Z,6.30
2023-07-19T00:41:35.778Z,5.90
2023-07-19T00:44:05.014Z,6.70
2023-07-19T00:46:32.230Z,6.10
2023-07-19T00:48:59.756Z,6.20
2023-07-19T00:51:26.779Z,6.10
2023-07-19T00:53:53.842Z,6.10
2023-07-19T00:56:23.980Z,6.10
2023-07-19T00:58:51.974Z,6.40
2023-07-19T01:01:21.938Z,6.20
2023-07-19T01:06:16.312Z,6.70
2023-07-19T01:08:43.461Z,5.90
2023-07-19T01:11:10.973Z,6.50
2023-07-19T01:13:38.838Z,7.20
2023-07-19T01:16:05.900Z,6.20
2023-07-19T01:18:33.770Z,6.30
2023-07-19T01:21:10.217Z,6.40
2023-07-19T01:23:45.804Z,6.60
2023-07-19T01:26:12.923Z,6.50
2023-07-19T01:28:40.496Z,6.50
2023-07-19T01:31:08.008Z,6.30
2023-07-19T01:33:35.251Z,6.50
2023-07-19T01:36:02.456Z,6.50
2023-07-19T01:38:31.328Z,6.40
2023-07-19T01:40:58.432Z,6.50
2023-07-19T01:43:25.504Z,6.10
2023-07-19T01:45:53.806Z,6.60
2023-07-19T01:48:20.882Z,6.20
2023-07-19T01:50:48.756Z,6.20
2023-07-19T01:53:16.511Z,5.70
2023-07-19T01:55:43.793Z,6.00
2023-07-19T01:58:12.320Z,6.20
2023-07-19T02:00:42.082Z,6.50
2023-07-19T02:03:12.163Z,6.40
2023-07-19T02:05:39.850Z,6.40
2023-07-19T02:08:08.611Z,6.10
2023-07-19T02:10:35.660Z,5.90
2023-07-19T02:13:02.779Z,6.40
2023-07-19T02:15:30.002Z,5.80
2023-07-19T02:17:58.934Z,6.30
2023-07-19T02:20:26.093Z,6.30
2023-07-19T02:22:53.809Z,5.80
2023-07-19T02:25:21.922Z,5.60
2023-07-19T02:27:49.111Z,5.50
2023-07-19T02:30:16.378Z,5.70
2023-07-19T02:35:13.245Z,5.30
2023-07-19T02:37:41.769Z,6.10
2023-07-19T02:40:09.941Z,5.40
2023-07-19T02:42:37.242Z,5.70
2023-07-19T02:45:05.692Z,5.70
2023-07-19T02:47:33.724Z,6.00
2023-07-19T02:50:00.967Z,6.10
2023-07-19T02:52:28.206Z,5.80
2023-07-19T02:54:55.325Z,6.00
2023-07-19T02:57:22.551Z,5.40
2023-07-19T02:59:49.797Z,5.90
2023-07-19T03:02:17.038Z,6.40
2023-07-19T03:04:46.814Z,6.40
2023-07-19T03:07:15.545Z,6.30
2023-07-19T03:09:42.636Z,5.70
2023-07-19T03:12:09.821Z,5.80
2023-07-19T03:14:36.880Z,5.90
2023-07-19T03:17:04.162Z,5.90
2023-07-19T03:19:31.561Z,5.70
2023-07-19T03:21:58.682Z,6.20
2023-07-19T03:24:25.799Z,6.10
2023-07-19T03:26:52.851Z,5.90
2023-07-19T03:29:20.547Z,6.20
2023-07-19T03:31:47.830Z,6.10
2023-07-19T03:34:15.564Z,6.20
2023-07-19T03:36:45.786Z,5.60
2023-07-19T03:39:13.176Z,5.60
2023-07-19T03:41:40.320Z,5.90
2023-07-19T03:44:07.628Z,6.30
2023-07-19T03:46:35.120Z,5.60
2023-07-19T03:49:02.284Z,6.00
2023-07-19T03:51:29.504Z,6.20
2023-07-19T03:53:57.545Z,6.60
2023-07-19T03:56:24.680Z,6.40
2023-07-19T03:58:53.037Z,6.10
2023-07-19T04:01:20.600Z,6.00
2023-07-19T04:03:50.370Z,6.40
2023-07-19T04:06:18.671Z,6.50
2023-07-19T04:08:46.978Z,6.20
2023-07-19T04:11:14.093Z,6.40
2023-07-19T04:13:41.352Z,6.20
2023-07-19T04:16:08.544Z,7.30
2023-07-19T04:18:35.743Z,6.80
2023-07-19T04:21:03.823Z,6.90
2023-07-19T04:23:31.099Z,6.60
2023-07-19T04:25:59.678Z,6.80
2023-07-19T04:28:27.765Z,7.30
2023-07-19T04:30:55.461Z,6.30
2023-07-19T04:33:22.749Z,7.00
2023-07-19T04:35:50.767Z,6.50
2023-07-19T04:38:18.455Z,6.90
2023-07-19T04:40:45.739Z,6.60
2023-07-19T04:43:13.141Z,7.50
2023-07-19T04:45:45.002Z,8.30
2023-07-19T04:48:14.810Z,7.90
2023-07-19T04:50:41.903Z,7.70
2023-07-19T04:53:09.197Z,7.50
2023-07-19T04:55:36.457Z,7.90
2023-07-19T04:58:04.357Z,7.80
2023-07-19T05:00:31.506Z,7.80
2023-07-19T05:02:58.741Z,7.60
2023-07-19T05:05:27.321Z,7.50
2023-07-19T05:07:54.535Z,7.70
2023-07-19T05:10:22.617Z,7.80
2023-07-19T05:12:50.213Z,7.90
2023-07-19T05:15:17.527Z,7.60
2023-07-19T05:17:44.762Z,7.80
2023-07-19T05:20:12.568Z,7.90
2023-07-19T05:22:40.146Z,7.10
2023-07-19T05:25:08.218Z,7.70
2023-07-19T05:30:05.843Z,7.10
2023-07-19T05:32:33.205Z,7.20
2023-07-19T05:35:00.809Z,6.50
2023-07-19T05:37:28.886Z,6.80
2023-07-19T05:39:56.155Z,7.10
2023-07-19T05:42:23.331Z,6.90
2023-07-19T05:44:50.400Z,6.30
2023-07-19T05:47:18.712Z,6.80
2023-07-19T05:49:46.426Z,6.10
2023-07-19T05:52:13.613Z,6.30
2023-07-19T05:54:40.715Z,6.30
2023-07-19T05:57:07.859Z,6.10
2023-07-19T05:59:35.831Z,6.70
2023-07-19T06:02:03.106Z,6.60
2023-07-19T06:04:30.626Z,6.80
2023-07-19T06:06:58.044Z,6.30
2023-07-19T06:09:25.593Z,6.40
2023-07-19T06:11:54.758Z,6.60
2023-07-19T06:14:21.846Z,6.00
2023-07-19T06:16:49.056Z,6.10
2023-07-19T06:19:17.779Z,5.70
2023-07-19T06:21:45.053Z,6.00
2023-07-19T06:24:12.234Z,6.00
2023-07-19T06:26:39.359Z,6.40
2023-07-19T06:29:06.497Z,6.20
2023-07-19T06:31:34.107Z,5.70
2023-07-19T06:34:01.641Z,6.30
2023-07-19T06:36:29.212Z,6.00
2023-07-19T06:38:56.840Z,5.50
2023-07-19T06:41:24.089Z,5.60
2023-07-19T06:43:51.287Z,5.50
2023-07-19T06:46:18.387Z,5.50
2023-07-19T06:48:46.412Z,5.50
2023-07-19T06:51:13.591Z,5.60
2023-07-19T06:53:41.476Z,5.30
2023-07-19T06:56:09.024Z,5.70
2023-07-19T06:58:36.138Z,5.90
2023-07-19T07:01:03.274Z,5.60
2023-07-19T07:03:31.586Z,5.70
2023-07-19T07:06:01.039Z,5.80
2023-07-19T07:08:29.391Z,5.70
2023-07-19T07:10:56.523Z,5.50
2023-07-19T07:13:23.682Z,5.70
2023-07-19T07:15:53.089Z,5.40
2023-07-19T07:18:20.246Z,5.30
2023-07-19T07:20:47.896Z,5.70
2023-07-19T07:23:15.401Z,5.70
2023-07-19T07:25:42.674Z,5.20
2023-07-19T07:28:09.990Z,5.90
2023-07-19T07:30:38.254Z,5.70
2023-07-19T07:33:06.093Z,5.40
2023-07-19T07:35:33.422Z,5.70
2023-07-19T07:38:00.636Z,5.80
2023-07-19T07:40:27.743Z,5.40
2023-07-19T07:42:54.904Z,6.00
2023-07-19T07:45:22.239Z,5.50
2023-07-19T07:47:49.408Z,5.60
2023-07-19T07:50:17.907Z,5.30
2023-07-19T07:52:52.545Z,5.70
2023-07-19T07:55:22.623Z,6.20
2023-07-19T07:57:50.786Z,5.90
2023-07-19T08:00:19.254Z,5.90
2023-07-19T08:02:46.687Z,5.90
2023-07-19T08:05:13.845Z,5.50
2023-07-19T08:07:41.222Z,5.90
2023-07-19T08:10:08.675Z,6.30
2023-07-19T08:12:35.772Z,6.10
2023-07-19T08:15:02.881Z,6.20
2023-07-19T08:17:30.048Z,6.60
2023-07-19T08:19:57.256Z,5.90
2023-07-19T08:22:25.986Z,6.00
2023-07-19T08:27:20.099Z,5.60
2023-07-19T08:29:47.641Z,5.20
2023-07-19T08:32:15.149Z,5.70
2023-07-19T08:34:44.069Z,5.90
2023-07-19T08:37:11.238Z,5.60
2023-07-19T08:39:38.639Z,6.30
2023-07-19T08:42:06.034Z,5.90
2023-07-19T08:44:33.316Z,5.80
2023-07-19T08:47:00.511Z,5.80
2023-07-19T08:49:27.658Z,6.00
2023-07-19T08:51:54.742Z,6.10
2023-07-19T08:54:21.933Z,5.60
2023-07-19T08:56:49.859Z,5.30
2023-07-19T08:59:17.536Z,6.30
2023-07-19T09:01:44.718Z,5.40
2023-07-19T09:04:13.477Z,5.50
2023-07-19T09:09:13.852Z,5.50
2023-07-19T09:11:52.463Z,5.80
2023-07-19T09:14:19.588Z,6.10
2023-07-19T09:16:47.311Z,5.60
2023-07-19T09:19:14.508Z,5.80
2023-07-19T09:21:48.625Z,6.00
2023-07-19T09:24:16.197Z,5.30
2023-07-19T09:26:59.192Z,6.70
2023-07-19T09:29:30.235Z,6.40
2023-07-19T09:32:01.449Z,5.80
2023-07-19T09:34:30.181Z,5.90
2023-07-19T09:39:24.418Z,6.20
2023-07-19T09:41:53.501Z,5.50
2023-07-19T09:44:20.696Z,5.90
2023-07-19T09:46:47.913Z,6.00
2023-07-19T09:49:17.997Z,5.60
2023-07-19T09:51:45.218Z,6.00
2023-07-19T09:54:14.043Z,6.30
2023-07-19T09:56:42.166Z,6.40
2023-07-19T09:59:16.400Z,6.30
2023-07-19T10:01:44.919Z,6.50
2023-07-19T10:04:25.889Z,6.20
2023-07-19T10:07:16.546Z,6.10
2023-07-19T10:09:45.830Z,6.20
2023-07-19T10:12:19.323Z,6.40
2023-07-19T10:15:02.409Z,6.50
2023-07-19T10:17:31.378Z,6.80
2023-07-19T10:20:14.292Z,6.30
2023-07-19T10:22:48.468Z,5.70
2023-07-19T10:25:17.882Z,6.20
2023-07-19T10:27:55.375Z,6.00
2023-07-19T10:30:22.599Z,6.00
2023-07-19T10:32:52.526Z,6.20
2023-07-19T10:35:31.943Z,6.50
2023-07-19T10:38:01.024Z,6.30
2023-07-19T10:40:28.705Z,6.10
2023-07-19T10:42:56.020Z,6.90
2023-07-19T10:45:27.156Z,6.50
2023-07-19T10:47:55.180Z,6.10
2023-07-19T10:50:26.190Z,5.90
2023-07-19T10:52:53.317Z,6.40
2023-07-19T10:55:46.712Z,7.00
2023-07-19T10:58:07.634Z,6.50
2023-07-19T11:00:39.457Z,6.70
2023-07-19T11:03:07.165Z,6.30
2023-07-19T11:05:34.743Z,6.10
2023-07-19T11:08:01.903Z,6.90
2023-07-19T11:10:29.239Z,6.60
2023-07-19T11:12:58.866Z,6.60
2023-07-19T11:15:28.282Z,6.60
2023-07-19T11:17:58.990Z,6.30
2023-07-19T11:20:31.840Z,5.90
2023-07-19T11:23:09.648Z,6.10
2023-07-19T11:25:36.928Z,6.60
2023-07-19T11:28:04.244Z,6.00
2023-07-19T11:30:41.496Z,6.10
2023-07-19T11:33:10.975Z,6.30
2023-07-19T11:35:39.127Z,6.10
2023-07-19T11:38:06.263Z,6.30
2023-07-19T11:40:33.461Z,6.30
2023-07-19T11:43:02.688Z,6.30
2023-07-19T11:45:30.026Z,6.20
2023-07-19T11:48:00.045Z,6.30
2023-07-19T11:50:27.295Z,6.40
2023-07-19T11:53:03.086Z,6.60
2023-07-19T11:55:31.011Z,6.20
2023-07-19T11:58:04.448Z,5.80
2023-07-19T12:00:32.583Z,6.20
2023-07-19T12:03:00.080Z,5.70
2023-07-19T12:05:27.471Z,5.90
2023-07-19T12:07:56.148Z,5.50
2023-07-19T12:10:24.178Z,6.10
2023-07-19T12:12:54.964Z,5.80
2023-07-19T12:15:25.733Z,5.80
2023-07-19T12:17:54.264Z,5.30
2023-07-19T12:20:21.439Z,6.00
2023-07-19T12:22:50.598Z,5.80
2023-07-19T12:25:19.431Z,5.80
2023-07-19T12:27:48.862Z,5.70
2023-07-19T12:30:15.960Z,5.70
2023-07-19T12:32:43.222Z,5.70
2023-07-19T12:35:10.413Z,5.40
2023-07-19T12:37:37.551Z,5.50
2023-07-19T12:40:10.617Z,5.40
2023-07-19T12:42:38.005Z,5.60
2023-07-19T12:45:06.848Z,5.40
2023-07-19T12:47:38.014Z,5.30
2023-07-19T12:50:08.736Z,5.40
2023-07-19T12:52:50.021Z,5.30
2023-07-19T12:55:19.350Z,5.40
2023-07-19T12:57:46.524Z,5.20
2023-07-19T13:00:15.081Z,5.50
2023-07-19T13:02:45.837Z,5.10
2023-07-19T13:05:13.475Z,5.50
2023-07-19T13:07:40.629Z,5.10
2023-07-19T13:10:11.932Z,5.10
2023-07-19T13:12:39.677Z,5.90
2023-07-19T13:15:08.089Z,5.50
2023-07-19T13:20:10.262Z,5.30
2023-07-19T13:22:38.236Z,5.30
2023-07-19T13:25:07.034Z,5.10
2023-07-19T13:27:36.454Z,5.10
2023-07-19T13:30:09.010Z,5.10
2023-07-19T13:32:37.119Z,5.20
2023-07-19T13:35:05.068Z,4.60
2023-07-19T13:40:03.290Z,4.30
2023-07-19T13:42:34.041Z,4.40
2023-07-19T13:45:02.934Z,3.70
2023-07-19T13:47:30.134Z,4.10
2023-07-19T13:49:57.277Z,3.70
2023-07-19T13:52:24.515Z,4.10
2023-07-19T13:54:52.974Z,4.10
2023-07-19T13:57:20.161Z,4.00
2023-07-19T13:59:47.887Z,3.90
2023-07-19T14:02:15.034Z,3.90
2023-07-19T14:04:42.379Z,4.10
2023-07-19T14:07:09.549Z,3.80
2023-07-19T14:09:36.997Z,3.90
2023-07-19T14:12:04.723Z,4.20
2023-07-19T14:14:45.020Z,3.80
2023-07-19T14:17:12.715Z,4.10
2023-07-19T14:19:40.134Z,4.20
2023-07-19T14:22:07.777Z,4.10
2023-07-19T14:24:34.957Z,4.20
2023-07-19T14:27:02.524Z,4.40
2023-07-19T14:29:29.868Z,4.20
2023-07-19T14:31:57.149Z,4.10
2023-07-19T14:34:25.948Z,4.20
2023-07-19T14:36:53.576Z,4.40
2023-07-19T14:39:21.875Z,4.30
2023-07-19T14:41:57.924Z,4.90
2023-07-19T14:44:26.228Z,4.00
2023-07-19T14:46:53.331Z,4.20
2023-07-19T14:49:20.615Z,4.60
2023-07-19T14:51:47.735Z,4.20
2023-07-19T14:54:15.098Z,4.50
2023-07-19T14:56:43.696Z,4.70
2023-07-19T14:59:10.842Z,4.40
2023-07-19T15:01:38.058Z,4.40
2023-07-19T15:04:05.337Z,4.20
2023-07-19T15:06:32.578Z,4.60
2023-07-19T15:09:01.842Z,4.10
2023-07-19T15:11:29.587Z,4.30
2023-07-19T15:13:59.232Z,4.30
2023-07-19T15:16:26.805Z,4.30
2023-07-19T15:18:54.350Z,4.10
2023-07-19T15:21:21.497Z,4.70
2023-07-19T15:23:50.368Z,4.50
2023-07-19T15:28:48.307Z,3.60
2023-07-19T15:31:15.764Z,4.00
2023-07-19T15:33:42.929Z,4.30
2023-07-19T15:36:10.109Z,4.20
2023-07-19T15:38:45.669Z,4.00
2023-07-19T15:41:13.841Z,4.50
2023-07-19T15:43:44.440Z,4.30
2023-07-19T15:46:14.461Z,4.30
2023-07-19T15:48:41.836Z,3.90
2023-07-19T15:51:08.974Z,3.70
2023-07-19T15:53:37.798Z,3.70
2023-07-19T15:56:07.155Z,4.00
2023-07-19T15:58:34.524Z,3.90
2023-07-19T16:01:02.560Z,4.20
2023-07-19T16:03:30.190Z,4.30
2023-07-19T16:05:57.604Z,4.00
2023-07-19T16:08:24.793Z,4.10
2023-07-19T16:10:51.962Z,3.90
2023-07-19T16:13:19.028Z,4.40
2023-07-19T16:15:47.006Z,4.30
2023-07-19T16:18:14.651Z,4.50
2023-07-19T16:20:43.432Z,4.60
2023-07-19T16:23:11.094Z,4.00
2023-07-19T16:25:38.395Z,3.90
2023-07-19T16:28:05.612Z,4.20
2023-07-19T16:30:33.144Z,4.10
2023-07-19T16:33:00.623Z,4.50
2023-07-19T16:35:31.804Z,4.30
2023-07-19T16:37:59.058Z,4.20
2023-07-19T16:40:26.307Z,4.60
2023-07-19T16:42:53.452Z,4.30
2023-07-19T16:45:20.555Z,4.70
2023-07-19T16:47:47.726Z,4.50
2023-07-19T16:50:17.292Z,4.00
2023-07-19T16:52:44.453Z,4.00
2023-07-19T16:55:11.936Z,4.20
2023-07-19T16:57:39.853Z,4.10
2023-07-19T17:00:17.118Z,4.30
2023-07-19T17:02:45.268Z,4.00
2023-07-19T17:05:12.539Z,4.80
2023-07-19T17:07:39.869Z,4.50
2023-07-19T17:10:07.470Z,4.70
2023-07-19T17:12:34.652Z,4.90
2023-07-19T17:15:02.006Z,4.60
2023-07-19T17:17:29.420Z,4.70
2023-07-19T17:19:56.642Z,4.30
2023-07-19T17:22:25.640Z,4.00
2023-07-19T17:24:52.713Z,4.10
2023-07-19T17:27:20.238Z,3.90
2023-07-19T17:29:47.292Z,4.90
2023-07-19T17:32:14.518Z,4.30
2023-07-19T17:34:41.679Z,4.60
2023-07-19T17:37:08.809Z,4.30
2023-07-19T17:39:35.986Z,4.70
2023-07-19T17:42:03.508Z,4.70
2023-07-19T17:44:31.875Z,4.30
2023-07-19T17:46:58.988Z,4.40
2023-07-19T17:49:26.168Z,4.60
2023-07-19T17:51:53.599Z,4.00
2023-07-19T17:54:22.406Z,4.60
2023-07-19T17:56:55.555Z,4.40
2023-07-19T17:59:26.188Z,4.40
2023-07-19T18:01:54.853Z,4.40
2023-07-19T18:04:22.438Z,4.40
2023-07-19T18:06:50.059Z,4.70
2023-07-19T18:09:22.171Z,4.40
2023-07-19T18:11:49.430Z,4.60
2023-07-19T18:14:16.956Z,4.30
2023-07-19T18:16:44.344Z,4.80
2023-07-19T18:19:11.968Z,4.50
2023-07-19T18:21:45.127Z,5.30
2023-07-19T18:26:47.203Z,5.10
2023-07-19T18:29:16.334Z,5.50
2023-07-19T18:31:43.626Z,5.40
2023-07-19T18:34:29.531Z,4.90
2023-07-19T18:36:57.613Z,5.30
2023-07-19T18:39:26.018Z,5.00
2023-07-19T18:41:53.086Z,4.60
2023-07-19T18:44:21.948Z,4.80
2023-07-19T18:49:17.896Z,5.20
2023-07-19T18:51:45.203Z,4.70
2023-07-19T18:54:15.915Z,5.30
2023-07-19T18:56:43.581Z,5.00
2023-07-19T18:59:11.687Z,5.20
2023-07-19T19:01:39.487Z,5.30
2023-07-19T19:04:06.761Z,5.50
2023-07-19T19:06:34.011Z,5.00
2023-07-19T19:09:06.991Z,4.90
2023-07-19T19:11:34.427Z,5.80
2023-07-19T19:14:01.807Z,9.00
2023-07-19T19:16:29.893Z,9.20
2023-07-19T19:19:00.572Z,8.90
2023-07-19T19:21:29.913Z,8.30
2023-07-19T19:23:58.622Z,7.80
2023-07-19T19:26:25.877Z,7.60
2023-07-19T19:28:54.252Z,7.60
2023-07-19T19:31:22.986Z,6.70
2023-07-19T19:33:50.939Z,6.90
2023-07-19T19:36:18.205Z,6.70
2023-07-19T19:38:45.614Z,6.30
2023-07-19T19:41:13.085Z,6.40
2023-07-19T19:43:40.331Z,6.30
2023-07-19T19:46:07.590Z,6.70
2023-07-19T19:48:35.211Z,6.80
2023-07-19T19:51:02.380Z,6.80
2023-07-19T19:53:32.019Z,5.90
2023-07-19T19:56:17.669Z,5.70
2023-07-19T19:58:47.098Z,5.70
2023-07-19T20:01:15.895Z,5.80
2023-07-19T20:03:43.357Z,6.10
2023-07-19T20:06:10.932Z,5.80
2023-07-19T20:08:38.219Z,6.20
2023-07-19T20:11:06.086Z,6.40
2023-07-19T20:13:33.392Z,6.40
2023-07-19T20:16:01.281Z,6.40
2023-07-19T20:20:59.669Z,6.60
2023-07-19T20:23:26.949Z,6.80
2023-07-19T20:26:11.206Z,7.20
2023-07-19T20:28:39.965Z,7.70
2023-07-19T20:31:07.229Z,7.10
2023-07-19T20:33:34.967Z,7.20
2023-07-19T20:43:35.257Z,6.80
2023-07-19T20:48:34.808Z,6.50
2023-07-19T20:51:04.017Z,6.10
2023-07-19T20:53:31.334Z,6.00
2023-07-19T20:55:58.551Z,6.10
2023-07-19T20:58:26.222Z,5.50
2023-07-19T21:00:56.753Z,5.30
2023-07-19T21:03:25.684Z,5.90
2023-07-19T21:05:53.062Z,5.10
2023-07-19T21:08:20.436Z,5.30
2023-07-19T21:10:47.795Z,4.80
2023-07-19T21:13:14.998Z,5.40
2023-07-19T21:15:42.187Z,5.30
2023-07-19T21:18:09.496Z,5.10
2023-07-19T21:20:36.712Z,5.30
2023-07-19T21:23:03.991Z,5.30
2023-07-19T21:25:31.332Z,5.30
2023-07-19T21:27:58.521Z,5.40
2023-07-19T21:30:25.829Z,5.00
2023-07-19T21:32:53.032Z,5.40
2023-07-19T21:35:20.191Z,5.20
2023-07-19T21:37:47.393Z,5.20
2023-07-19T21:40:15.852Z,5.40
2023-07-19T21:42:43.121Z,5.20
2023-07-19T21:45:10.759Z,5.20
2023-07-19T21:47:38.321Z,5.40
2023-07-19T21:50:06.264Z,5.20
2023-07-19T21:52:33.387Z,5.10
2023-07-19T21:55:00.559Z,5.40
2023-07-19T21:57:28.275Z,5.40
2023-07-19T21:59:58.119Z,5.30
2023-07-19T22:02:25.422Z,5.40
2023-07-19T22:04:52.672Z,4.90
2023-07-19T22:07:19.852Z,5.20
2023-07-19T22:09:51.021Z,5.30
2023-07-19T22:12:18.764Z,4.80
2023-07-19T22:14:53.937Z,5.50
2023-07-19T22:17:28.974Z,5.50
2023-07-19T22:19:56.206Z,5.10
2023-07-19T22:22:23.462Z,5.40
2023-07-19T22:24:50.788Z,5.20
2023-07-19T22:27:17.945Z,5.70
2023-07-19T22:29:45.724Z,5.80
2023-07-19T22:32:12.974Z,5.40
2023-07-19T22:34:40.174Z,6.10
2023-07-19T22:37:07.436Z,5.80
2023-07-19T22:39:35.306Z,5.50
2023-07-19T22:42:02.452Z,6.10
2023-07-19T22:46:58.837Z,5.80
2023-07-19T22:49:26.162Z,5.80
2023-07-19T22:51:54.709Z,5.80
2023-07-19T22:54:23.002Z,5.60
2023-07-19T22:56:50.183Z,6.20
2023-07-19T22:59:17.351Z,6.10
2023-07-19T23:01:46.206Z,6.10
2023-07-19T23:04:13.374Z,6.00
2023-07-19T23:06:41.375Z,5.80
2023-07-19T23:09:08.660Z,6.10
2023-07-19T23:11:39.561Z,5.90
2023-07-19T23:14:09.950Z,5.80
2023-07-19T23:16:37.685Z,5.60
2023-07-19T23:19:04.881Z,5.60
2023-07-19T23:21:33.038Z,5.60
2023-07-19T23:24:00.332Z,6.20
2023-07-19T23:26:27.588Z,6.10
2023-07-19T23:28:55.983Z,5.60
2023-07-19T23:31:23.252Z,5.90
2023-07-19T23:33:50.460Z,5.10
2023-07-19T23:36:17.734Z,5.60
2023-07-19T23:38:46.613Z,6.20
2023-07-19T23:43:41.296Z,5.40
2023-07-19T23:46:11.620Z,5.80
2023-07-19T23:48:40.800Z,5.40
2023-07-19T23:51:07.975Z,5.30
2023-07-19T23:53:35.203Z,5.60
2023-07-19T23:56:02.465Z,5.50
2023-07-19T23:58:29.696Z,5.80
